sensor_id;sensor_type;location;lat;lon;timestamp;P1;durP1;ratioP1;P2;durP2;ratioP2
12908;SDS011;6522;49.622;6.126;2023-04-24T00:01:03;3.85;;;3.42;;
12908;SDS011;6522;49.622;6.126;2023-04-24T00:03:50;3.83;;;3.53;;
12908;SDS011;6522;49.622;6.126;2023-04-24T00:06:37;4.20;;;3.80;;
12908;SDS011;6522;49.622;6.126;2023-04-24T00:09:23;4.82;;;4.10;;
12908;SDS011;6522;49.622;6.126;2023-04-24T00:12:10;5.12;;;4.62;;
12908;SDS011;6522;49.622;6.126;2023-04-24T00:14:57;4.55;;;4.15;;
12908;SDS011;6522;49.622;6.126;2023-04-24T00:17:43;5.68;;;4.50;;
12908;SDS011;6522;49.622;6.126;2023-04-24T00:20:30;5.57;;;5.07;;
12908;SDS011;6522;49.622;6.126;2023-04-24T00:23:17;5.25;;;4.75;;
12908;SDS011;6522;49.622;6.126;2023-04-24T00:26:04;7.95;;;6.87;;
12908;SDS011;6522;49.622;6.126;2023-04-24T00:28:50;7.45;;;5.87;;
12908;SDS011;6522;49.622;6.126;2023-04-24T00:31:37;7.47;;;6.03;;
12908;SDS011;6522;49.622;6.126;2023-04-24T00:34:24;8.98;;;7.05;;
12908;SDS011;6522;49.622;6.126;2023-04-24T00:37:11;11.00;;;8.13;;
12908;SDS011;6522;49.622;6.126;2023-04-24T00:39:58;9.02;;;7.47;;
12908;SDS011;6522;49.622;6.126;2023-04-24T00:42:45;8.85;;;7.20;;
12908;SDS011;6522;49.622;6.126;2023-04-24T00:45:32;10.45;;;7.87;;
12908;SDS011;6522;49.622;6.126;2023-04-24T00:48:18;10.82;;;8.70;;
12908;SDS011;6522;49.622;6.126;2023-04-24T00:51:05;11.60;;;9.25;;
12908;SDS011;6522;49.622;6.126;2023-04-24T00:53:51;10.43;;;8.35;;
12908;SDS011;6522;49.622;6.126;2023-04-24T00:56:39;9.18;;;8.07;;
12908;SDS011;6522;49.622;6.126;2023-04-24T00:59:25;10.20;;;8.07;;
12908;SDS011;6522;49.622;6.126;2023-04-24T01:02:12;11.27;;;9.68;;
12908;SDS011;6522;49.622;6.126;2023-04-24T01:04:59;14.82;;;11.20;;
12908;SDS011;6522;49.622;6.126;2023-04-24T01:07:46;13.77;;;11.12;;
12908;SDS011;6522;49.622;6.126;2023-04-24T01:10:32;14.98;;;11.45;;
12908;SDS011;6522;49.622;6.126;2023-04-24T01:13:19;16.35;;;12.23;;
12908;SDS011;6522;49.622;6.126;2023-04-24T01:16:05;16.45;;;11.63;;
12908;SDS011;6522;49.622;6.126;2023-04-24T01:18:52;20.20;;;11.07;;
12908;SDS011;6522;49.622;6.126;2023-04-24T01:21:39;14.43;;;12.30;;
12908;SDS011;6522;49.622;6.126;2023-04-24T01:24:26;17.30;;;12.93;;
12908;SDS011;6522;49.622;6.126;2023-04-24T01:27:13;17.17;;;10.98;;
12908;SDS011;6522;49.622;6.126;2023-04-24T01:29:59;13.52;;;11.55;;
12908;SDS011;6522;49.622;6.126;2023-04-24T01:32:46;15.40;;;11.27;;
12908;SDS011;6522;49.622;6.126;2023-04-24T01:35:33;16.33;;;11.40;;
12908;SDS011;6522;49.622;6.126;2023-04-24T01:38:19;11.77;;;9.88;;
12908;SDS011;6522;49.622;6.126;2023-04-24T01:41:06;11.45;;;9.93;;
12908;SDS011;6522;49.622;6.126;2023-04-24T01:43:53;9.40;;;8.02;;
12908;SDS011;6522;49.622;6.126;2023-04-24T01:46:40;13.10;;;8.23;;
12908;SDS011;6522;49.622;6.126;2023-04-24T01:49:27;11.88;;;8.98;;
12908;SDS011;6522;49.622;6.126;2023-04-24T01:52:14;11.40;;;9.95;;
12908;SDS011;6522;49.622;6.126;2023-04-24T01:55:01;10.57;;;9.45;;
12908;SDS011;6522;49.622;6.126;2023-04-24T01:57:48;11.35;;;9.27;;
12908;SDS011;6522;49.622;6.126;2023-04-24T02:00:35;15.30;;;9.88;;
12908;SDS011;6522;49.622;6.126;2023-04-24T02:03:21;11.95;;;10.75;;
12908;SDS011;6522;49.622;6.126;2023-04-24T02:06:08;10.52;;;9.32;;
12908;SDS011;6522;49.622;6.126;2023-04-24T02:08:55;14.68;;;9.43;;
12908;SDS011;6522;49.622;6.126;2023-04-24T02:11:42;14.87;;;11.02;;
12908;SDS011;6522;49.622;6.126;2023-04-24T02:14:29;13.88;;;10.82;;
12908;SDS011;6522;49.622;6.126;2023-04-24T02:17:16;14.80;;;10.15;;
12908;SDS011;6522;49.622;6.126;2023-04-24T02:20:02;12.95;;;9.68;;
12908;SDS011;6522;49.622;6.126;2023-04-24T02:22:49;13.15;;;10.30;;
12908;SDS011;6522;49.622;6.126;2023-04-24T02:25:36;13.53;;;10.90;;
12908;SDS011;6522;49.622;6.126;2023-04-24T02:28:22;13.75;;;11.10;;
12908;SDS011;6522;49.622;6.126;2023-04-24T02:31:09;17.58;;;11.12;;
12908;SDS011;6522;49.622;6.126;2023-04-24T02:33:56;14.43;;;10.82;;
12908;SDS011;6522;49.622;6.126;2023-04-24T02:36:43;12.73;;;10.23;;
12908;SDS011;6522;49.622;6.126;2023-04-24T02:39:29;16.35;;;12.07;;
12908;SDS011;6522;49.622;6.126;2023-04-24T02:42:16;15.80;;;11.12;;
12908;SDS011;6522;49.622;6.126;2023-04-24T02:45:03;17.73;;;12.20;;
12908;SDS011;6522;49.622;6.126;2023-04-24T02:47:50;12.65;;;10.82;;
12908;SDS011;6522;49.622;6.126;2023-04-24T02:50:37;15.73;;;11.57;;
12908;SDS011;6522;49.622;6.126;2023-04-24T02:53:24;16.50;;;12.32;;
12908;SDS011;6522;49.622;6.126;2023-04-24T02:56:11;16.75;;;10.85;;
12908;SDS011;6522;49.622;6.126;2023-04-24T02:58:58;15.32;;;10.48;;
12908;SDS011;6522;49.622;6.126;2023-04-24T03:01:44;11.05;;;9.95;;
12908;SDS011;6522;49.622;6.126;2023-04-24T03:04:31;10.85;;;9.23;;
12908;SDS011;6522;49.622;6.126;2023-04-24T03:07:18;11.63;;;10.40;;
12908;SDS011;6522;49.622;6.126;2023-04-24T03:10:05;11.80;;;9.80;;
12908;SDS011;6522;49.622;6.126;2023-04-24T03:12:52;18.10;;;10.88;;
12908;SDS011;6522;49.622;6.126;2023-04-24T03:15:39;13.80;;;10.98;;
12908;SDS011;6522;49.622;6.126;2023-04-24T03:18:26;13.23;;;9.10;;
12908;SDS011;6522;49.622;6.126;2023-04-24T03:21:13;11.75;;;10.40;;
12908;SDS011;6522;49.622;6.126;2023-04-24T03:23:59;14.82;;;10.82;;
12908;SDS011;6522;49.622;6.126;2023-04-24T03:26:46;14.35;;;10.50;;
12908;SDS011;6522;49.622;6.126;2023-04-24T03:29:33;11.60;;;10.45;;
12908;SDS011;6522;49.622;6.126;2023-04-24T03:32:20;16.65;;;10.82;;
12908;SDS011;6522;49.622;6.126;2023-04-24T03:35:07;13.35;;;10.20;;
12908;SDS011;6522;49.622;6.126;2023-04-24T03:37:54;16.12;;;11.82;;
12908;SDS011;6522;49.622;6.126;2023-04-24T03:40:41;11.30;;;9.52;;
12908;SDS011;6522;49.622;6.126;2023-04-24T03:43:28;13.50;;;9.90;;
12908;SDS011;6522;49.622;6.126;2023-04-24T03:46:15;9.45;;;8.48;;
12908;SDS011;6522;49.622;6.126;2023-04-24T03:49:01;12.13;;;8.88;;
12908;SDS011;6522;49.622;6.126;2023-04-24T03:51:48;11.65;;;8.48;;
12908;SDS011;6522;49.622;6.126;2023-04-24T03:54:35;7.65;;;6.85;;
12908;SDS011;6522;49.622;6.126;2023-04-24T03:57:22;12.27;;;8.38;;
12908;SDS011;6522;49.622;6.126;2023-04-24T04:00:08;10.32;;;7.20;;
12908;SDS011;6522;49.622;6.126;2023-04-24T04:02:55;8.65;;;7.07;;
12908;SDS011;6522;49.622;6.126;2023-04-24T04:05:42;10.43;;;7.78;;
12908;SDS011;6522;49.622;6.126;2023-04-24T04:08:28;7.78;;;6.62;;
12908;SDS011;6522;49.622;6.126;2023-04-24T04:11:15;8.55;;;7.75;;
12908;SDS011;6522;49.622;6.126;2023-04-24T04:14:02;7.97;;;7.12;;
12908;SDS011;6522;49.622;6.126;2023-04-24T04:16:48;10.65;;;7.78;;
12908;SDS011;6522;49.622;6.126;2023-04-24T04:19:35;7.50;;;6.72;;
12908;SDS011;6522;49.622;6.126;2023-04-24T04:22:22;9.13;;;7.50;;
12908;SDS011;6522;49.622;6.126;2023-04-24T04:25:09;8.88;;;6.97;;
12908;SDS011;6522;49.622;6.126;2023-04-24T04:27:56;9.48;;;7.80;;
12908;SDS011;6522;49.622;6.126;2023-04-24T04:30:42;8.85;;;7.78;;
12908;SDS011;6522;49.622;6.126;2023-04-24T04:33:29;7.62;;;6.82;;
12908;SDS011;6522;49.622;6.126;2023-04-24T04:36:16;9.00;;;7.72;;
12908;SDS011;6522;49.622;6.126;2023-04-24T04:39:03;6.90;;;6.20;;
12908;SDS011;6522;49.622;6.126;2023-04-24T04:41:49;9.13;;;7.22;;
12908;SDS011;6522;49.622;6.126;2023-04-24T04:44:36;7.18;;;6.47;;
12908;SDS011;6522;49.622;6.126;2023-04-24T04:47:23;7.40;;;6.00;;
12908;SDS011;6522;49.622;6.126;2023-04-24T04:50:10;6.82;;;6.12;;
12908;SDS011;6522;49.622;6.126;2023-04-24T04:52:57;6.45;;;5.85;;
12908;SDS011;6522;49.622;6.126;2023-04-24T04:55:43;8.60;;;6.65;;
12908;SDS011;6522;49.622;6.126;2023-04-24T04:58:30;8.50;;;7.60;;
12908;SDS011;6522;49.622;6.126;2023-04-24T05:01:17;10.02;;;6.60;;
12908;SDS011;6522;49.622;6.126;2023-04-24T05:04:04;7.93;;;7.18;;
12908;SDS011;6522;49.622;6.126;2023-04-24T05:06:50;7.97;;;7.15;;
12908;SDS011;6522;49.622;6.126;2023-04-24T05:09:37;7.15;;;6.45;;
12908;SDS011;6522;49.622;6.126;2023-04-24T05:12:24;8.90;;;6.95;;
12908;SDS011;6522;49.622;6.126;2023-04-24T05:15:11;8.70;;;7.40;;
12908;SDS011;6522;49.622;6.126;2023-04-24T05:17:57;8.02;;;7.25;;
12908;SDS011;6522;49.622;6.126;2023-04-24T05:20:44;6.50;;;5.90;;
12908;SDS011;6522;49.622;6.126;2023-04-24T05:23:31;7.43;;;6.32;;
12908;SDS011;6522;49.622;6.126;2023-04-24T05:26:18;8.23;;;6.65;;
12908;SDS011;6522;49.622;6.126;2023-04-24T05:29:04;7.50;;;6.80;;
12908;SDS011;6522;49.622;6.126;2023-04-24T05:31:51;8.95;;;7.15;;
12908;SDS011;6522;49.622;6.126;2023-04-24T05:34:38;9.50;;;7.82;;
12908;SDS011;6522;49.622;6.126;2023-04-24T05:37:25;10.10;;;7.57;;
12908;SDS011;6522;49.622;6.126;2023-04-24T05:40:12;8.60;;;7.70;;
12908;SDS011;6522;49.622;6.126;2023-04-24T05:42:58;8.50;;;7.60;;
12908;SDS011;6522;49.622;6.126;2023-04-24T05:45:45;8.30;;;6.75;;
12908;SDS011;6522;49.622;6.126;2023-04-24T05:48:31;8.43;;;7.30;;
12908;SDS011;6522;49.622;6.126;2023-04-24T05:51:18;8.40;;;6.95;;
12908;SDS011;6522;49.622;6.126;2023-04-24T05:54:05;8.98;;;8.02;;
12908;SDS011;6522;49.622;6.126;2023-04-24T05:56:52;8.15;;;7.35;;
12908;SDS011;6522;49.622;6.126;2023-04-24T05:59:40;9.55;;;7.80;;
12908;SDS011;6522;49.622;6.126;2023-04-24T06:02:25;9.32;;;8.35;;
12908;SDS011;6522;49.622;6.126;2023-04-24T06:05:12;10.25;;;8.35;;
12908;SDS011;6522;49.622;6.126;2023-04-24T06:07:59;9.20;;;8.30;;
12908;SDS011;6522;49.622;6.126;2023-04-24T06:10:46;9.23;;;7.07;;
12908;SDS011;6522;49.622;6.126;2023-04-24T06:13:33;11.40;;;8.77;;
12908;SDS011;6522;49.622;6.126;2023-04-24T06:16:20;11.50;;;9.40;;
12908;SDS011;6522;49.622;6.126;2023-04-24T06:19:07;13.07;;;10.02;;
12908;SDS011;6522;49.622;6.126;2023-04-24T06:21:53;12.02;;;7.95;;
12908;SDS011;6522;49.622;6.126;2023-04-24T06:24:40;15.48;;;9.57;;
12908;SDS011;6522;49.622;6.126;2023-04-24T06:27:27;12.45;;;10.63;;
12908;SDS011;6522;49.622;6.126;2023-04-24T06:30:14;13.35;;;8.93;;
12908;SDS011;6522;49.622;6.126;2023-04-24T06:33:00;12.45;;;10.35;;
12908;SDS011;6522;49.622;6.126;2023-04-24T06:35:47;10.90;;;9.82;;
12908;SDS011;6522;49.622;6.126;2023-04-24T06:38:34;12.32;;;9.57;;
12908;SDS011;6522;49.622;6.126;2023-04-24T06:41:21;14.80;;;10.90;;
12908;SDS011;6522;49.622;6.126;2023-04-24T06:44:07;10.82;;;9.38;;
12908;SDS011;6522;49.622;6.126;2023-04-24T06:46:54;12.93;;;10.50;;
12908;SDS011;6522;49.622;6.126;2023-04-24T06:49:41;11.93;;;9.60;;
12908;SDS011;6522;49.622;6.126;2023-04-24T06:52:28;13.38;;;9.70;;
12908;SDS011;6522;49.622;6.126;2023-04-24T06:55:15;15.50;;;10.70;;
12908;SDS011;6522;49.622;6.126;2023-04-24T06:58:01;11.98;;;9.32;;
12908;SDS011;6522;49.622;6.126;2023-04-24T07:00:48;13.32;;;10.43;;
12908;SDS011;6522;49.622;6.126;2023-04-24T07:03:35;13.55;;;10.23;;
12908;SDS011;6522;49.622;6.126;2023-04-24T07:06:21;13.10;;;10.15;;
12908;SDS011;6522;49.622;6.126;2023-04-24T07:09:08;14.40;;;11.40;;
12908;SDS011;6522;49.622;6.126;2023-04-24T07:11:55;13.75;;;10.80;;
12908;SDS011;6522;49.622;6.126;2023-04-24T07:14:41;12.82;;;10.73;;
12908;SDS011;6522;49.622;6.126;2023-04-24T07:17:28;12.35;;;10.02;;
12908;SDS011;6522;49.622;6.126;2023-04-24T07:20:15;14.07;;;9.50;;
12908;SDS011;6522;49.622;6.126;2023-04-24T07:23:02;15.00;;;10.15;;
12908;SDS011;6522;49.622;6.126;2023-04-24T07:25:49;14.27;;;9.43;;
12908;SDS011;6522;49.622;6.126;2023-04-24T07:28:35;15.45;;;10.50;;
12908;SDS011;6522;49.622;6.126;2023-04-24T07:31:22;13.48;;;10.32;;
12908;SDS011;6522;49.622;6.126;2023-04-24T07:34:09;12.53;;;9.90;;
12908;SDS011;6522;49.622;6.126;2023-04-24T07:36:55;11.52;;;9.98;;
12908;SDS011;6522;49.622;6.126;2023-04-24T07:39:42;12.20;;;10.80;;
12908;SDS011;6522;49.622;6.126;2023-04-24T07:42:29;12.98;;;10.38;;
12908;SDS011;6522;49.622;6.126;2023-04-24T07:45:19;12.80;;;9.43;;
12908;SDS011;6522;49.622;6.126;2023-04-24T07:48:06;12.85;;;11.27;;
12908;SDS011;6522;49.622;6.126;2023-04-24T07:50:53;18.23;;;12.65;;
12908;SDS011;6522;49.622;6.126;2023-04-24T07:53:40;13.88;;;11.25;;
12908;SDS011;6522;49.622;6.126;2023-04-24T07:56:27;14.05;;;12.65;;
12908;SDS011;6522;49.622;6.126;2023-04-24T07:59:14;14.75;;;12.02;;
12908;SDS011;6522;49.622;6.126;2023-04-24T08:02:00;13.45;;;11.32;;
12908;SDS011;6522;49.622;6.126;2023-04-24T08:04:47;14.35;;;10.88;;
12908;SDS011;6522;49.622;6.126;2023-04-24T08:07:33;12.88;;;11.15;;
12908;SDS011;6522;49.622;6.126;2023-04-24T08:10:20;14.87;;;10.73;;
12908;SDS011;6522;49.622;6.126;2023-04-24T08:13:07;10.98;;;9.90;;
12908;SDS011;6522;49.622;6.126;2023-04-24T08:15:54;15.77;;;12.85;;
12908;SDS011;6522;49.622;6.126;2023-04-24T08:18:41;14.90;;;11.77;;
12908;SDS011;6522;49.622;6.126;2023-04-24T08:21:28;15.07;;;12.48;;
12908;SDS011;6522;49.622;6.126;2023-04-24T08:24:14;20.23;;;13.13;;
12908;SDS011;6522;49.622;6.126;2023-04-24T08:27:01;17.55;;;13.65;;
12908;SDS011;6522;49.622;6.126;2023-04-24T08:29:49;17.95;;;13.88;;
12908;SDS011;6522;49.622;6.126;2023-04-24T08:32:35;16.20;;;12.73;;
12908;SDS011;6522;49.622;6.126;2023-04-24T08:35:22;16.25;;;13.65;;
12908;SDS011;6522;49.622;6.126;2023-04-24T08:38:08;15.30;;;11.55;;
12908;SDS011;6522;49.622;6.126;2023-04-24T08:40:56;16.60;;;13.60;;
12908;SDS011;6522;49.622;6.126;2023-04-24T08:43:42;21.33;;;13.10;;
12908;SDS011;6522;49.622;6.126;2023-04-24T08:46:29;18.65;;;13.77;;
12908;SDS011;6522;49.622;6.126;2023-04-24T08:49:15;17.00;;;12.10;;
12908;SDS011;6522;49.622;6.126;2023-04-24T08:52:05;13.82;;;11.15;;
12908;SDS011;6522;49.622;6.126;2023-04-24T08:54:51;12.70;;;11.38;;
12908;SDS011;6522;49.622;6.126;2023-04-24T08:57:38;14.35;;;12.63;;
12908;SDS011;6522;49.622;6.126;2023-04-24T09:00:25;12.85;;;11.63;;
12908;SDS011;6522;49.622;6.126;2023-04-24T09:03:13;16.02;;;12.50;;
12908;SDS011;6522;49.622;6.126;2023-04-24T09:05:58;15.32;;;13.75;;
12908;SDS011;6522;49.622;6.126;2023-04-24T09:08:45;16.52;;;13.80;;
12908;SDS011;6522;49.622;6.126;2023-04-24T09:11:32;13.65;;;11.90;;
12908;SDS011;6522;49.622;6.126;2023-04-24T09:14:19;15.75;;;14.52;;
12908;SDS011;6522;49.622;6.126;2023-04-24T09:17:06;16.55;;;15.25;;
12908;SDS011;6522;49.622;6.126;2023-04-24T09:19:53;14.57;;;13.27;;
12908;SDS011;6522;49.622;6.126;2023-04-24T09:22:40;17.05;;;15.65;;
12908;SDS011;6522;49.622;6.126;2023-04-24T09:25:33;14.93;;;13.82;;
12908;SDS011;6522;49.622;6.126;2023-04-24T09:28:20;14.23;;;13.13;;
12908;SDS011;6522;49.622;6.126;2023-04-24T09:31:11;15.90;;;14.55;;
12908;SDS011;6522;49.622;6.126;2023-04-24T09:33:54;13.85;;;12.70;;
12908;SDS011;6522;49.622;6.126;2023-04-24T09:36:43;13.35;;;12.15;;
12908;SDS011;6522;49.622;6.126;2023-04-24T09:39:27;13.30;;;12.13;;
12908;SDS011;6522;49.622;6.126;2023-04-24T09:42:14;13.80;;;12.55;;
12908;SDS011;6522;49.622;6.126;2023-04-24T09:45:01;13.57;;;12.30;;
12908;SDS011;6522;49.622;6.126;2023-04-24T09:47:51;13.75;;;12.57;;
12908;SDS011;6522;49.622;6.126;2023-04-24T09:50:34;12.48;;;11.48;;
12908;SDS011;6522;49.622;6.126;2023-04-24T09:53:25;13.32;;;12.13;;
12908;SDS011;6522;49.622;6.126;2023-04-24T09:56:12;14.55;;;13.45;;
12908;SDS011;6522;49.622;6.126;2023-04-24T09:59:04;16.83;;;15.50;;
12908;SDS011;6522;49.622;6.126;2023-04-24T10:01:45;16.37;;;15.27;;
12908;SDS011;6522;49.622;6.126;2023-04-24T10:04:32;21.05;;;19.75;;
12908;SDS011;6522;49.622;6.126;2023-04-24T10:07:19;17.30;;;16.20;;
12908;SDS011;6522;49.622;6.126;2023-04-24T10:10:06;17.45;;;16.45;;
12908;SDS011;6522;49.622;6.126;2023-04-24T10:12:53;20.92;;;19.73;;
12908;SDS011;6522;49.622;6.126;2023-04-24T10:15:40;21.62;;;20.12;;
12908;SDS011;6522;49.622;6.126;2023-04-24T10:18:27;20.37;;;19.15;;
12908;SDS011;6522;49.622;6.126;2023-04-24T10:21:14;20.40;;;19.20;;
12908;SDS011;6522;49.622;6.126;2023-04-24T10:24:00;17.60;;;16.40;;
12908;SDS011;6522;49.622;6.126;2023-04-24T10:26:47;18.08;;;16.83;;
12908;SDS011;6522;49.622;6.126;2023-04-24T10:29:34;16.02;;;14.93;;
12908;SDS011;6522;49.622;6.126;2023-04-24T10:32:21;17.08;;;15.77;;
12908;SDS011;6522;49.622;6.126;2023-04-24T10:35:08;16.50;;;15.40;;
12908;SDS011;6522;49.622;6.126;2023-04-24T10:37:59;14.95;;;13.57;;
12908;SDS011;6522;49.622;6.126;2023-04-24T10:40:44;16.02;;;14.75;;
12908;SDS011;6522;49.622;6.126;2023-04-24T10:43:31;16.80;;;15.32;;
12908;SDS011;6522;49.622;6.126;2023-04-24T10:46:21;15.55;;;14.32;;
12908;SDS011;6522;49.622;6.126;2023-04-24T10:49:08;15.80;;;14.60;;
12908;SDS011;6522;49.622;6.126;2023-04-24T10:51:58;16.60;;;14.90;;
12908;SDS011;6522;49.622;6.126;2023-04-24T10:54:42;14.55;;;13.45;;
12908;SDS011;6522;49.622;6.126;2023-04-24T10:57:28;17.52;;;16.33;;
12908;SDS011;6522;49.622;6.126;2023-04-24T11:00:19;16.37;;;15.25;;
12908;SDS011;6522;49.622;6.126;2023-04-24T11:03:06;14.93;;;13.80;;
12908;SDS011;6522;49.622;6.126;2023-04-24T11:05:52;15.52;;;14.38;;
12908;SDS011;6522;49.622;6.126;2023-04-24T11:08:39;17.35;;;16.02;;
12908;SDS011;6522;49.622;6.126;2023-04-24T11:11:25;17.83;;;16.30;;
12908;SDS011;6522;49.622;6.126;2023-04-24T11:14:15;17.10;;;15.77;;
12908;SDS011;6522;49.622;6.126;2023-04-24T11:16:58;18.50;;;16.98;;
12908;SDS011;6522;49.622;6.126;2023-04-24T11:19:45;18.62;;;17.40;;
12908;SDS011;6522;49.622;6.126;2023-04-24T11:22:33;15.88;;;14.48;;
12908;SDS011;6522;49.622;6.126;2023-04-24T11:25:19;17.25;;;15.75;;
12908;SDS011;6522;49.622;6.126;2023-04-24T11:28:05;17.70;;;16.20;;
12908;SDS011;6522;49.622;6.126;2023-04-24T11:30:52;18.90;;;17.40;;
12908;SDS011;6522;49.622;6.126;2023-04-24T11:33:39;20.33;;;18.80;;
12908;SDS011;6522;49.622;6.126;2023-04-24T11:36:25;18.12;;;16.62;;
12908;SDS011;6522;49.622;6.126;2023-04-24T11:39:12;17.45;;;16.30;;
12908;SDS011;6522;49.622;6.126;2023-04-24T11:42:02;18.45;;;16.92;;
12908;SDS011;6522;49.622;6.126;2023-04-24T11:44:52;15.63;;;14.13;;
12908;SDS011;6522;49.622;6.126;2023-04-24T11:47:38;18.08;;;16.77;;
12908;SDS011;6522;49.622;6.126;2023-04-24T11:50:25;20.12;;;18.62;;
12908;SDS011;6522;49.622;6.126;2023-04-24T11:53:11;19.15;;;17.75;;
12908;SDS011;6522;49.622;6.126;2023-04-24T11:56:02;21.40;;;20.00;;
12908;SDS011;6522;49.622;6.126;2023-04-24T11:58:45;22.37;;;20.77;;
12908;SDS011;6522;49.622;6.126;2023-04-24T12:01:42;20.83;;;19.23;;
12908;SDS011;6522;49.622;6.126;2023-04-24T12:04:19;22.25;;;20.95;;
12908;SDS011;6522;49.622;6.126;2023-04-24T12:07:06;21.25;;;20.00;;
12908;SDS011;6522;49.622;6.126;2023-04-24T12:09:57;21.90;;;20.50;;
12908;SDS011;6522;49.622;6.126;2023-04-24T12:12:43;20.30;;;19.10;;
12908;SDS011;6522;49.622;6.126;2023-04-24T12:15:29;20.40;;;19.05;;
12908;SDS011;6522;49.622;6.126;2023-04-24T12:18:16;20.77;;;19.20;;
12908;SDS011;6522;49.622;6.126;2023-04-24T12:21:16;20.35;;;18.95;;
12908;SDS011;6522;49.622;6.126;2023-04-24T12:24:05;21.10;;;19.70;;
12908;SDS011;6522;49.622;6.126;2023-04-24T12:26:49;22.70;;;20.88;;
12908;SDS011;6522;49.622;6.126;2023-04-24T12:29:36;18.33;;;17.02;;
12908;SDS011;6522;49.622;6.126;2023-04-24T12:32:22;19.73;;;18.23;;
12908;SDS011;6522;49.622;6.126;2023-04-24T12:35:09;21.80;;;20.05;;
12908;SDS011;6522;49.622;6.126;2023-04-24T12:37:56;19.98;;;18.62;;
12908;SDS011;6522;49.622;6.126;2023-04-24T12:40:43;20.52;;;19.12;;
12908;SDS011;6522;49.622;6.126;2023-04-24T12:43:29;20.15;;;18.85;;
12908;SDS011;6522;49.622;6.126;2023-04-24T12:46:17;19.55;;;18.27;;
12908;SDS011;6522;49.622;6.126;2023-04-24T12:49:03;17.20;;;16.00;;
12908;SDS011;6522;49.622;6.126;2023-04-24T12:51:50;20.77;;;19.33;;
12908;SDS011;6522;49.622;6.126;2023-04-24T12:54:37;20.73;;;19.33;;
12908;SDS011;6522;49.622;6.126;2023-04-24T12:57:24;18.80;;;17.60;;
12908;SDS011;6522;49.622;6.126;2023-04-24T13:00:10;19.80;;;18.60;;
12908;SDS011;6522;49.622;6.126;2023-04-24T13:02:57;20.58;;;19.12;;
12908;SDS011;6522;49.622;6.126;2023-04-24T13:05:44;20.50;;;19.00;;
12908;SDS011;6522;49.622;6.126;2023-04-24T13:08:30;19.75;;;18.33;;
12908;SDS011;6522;49.622;6.126;2023-04-24T13:11:17;19.80;;;18.75;;
12908;SDS011;6522;49.622;6.126;2023-04-24T13:14:04;21.00;;;19.58;;
12908;SDS011;6522;49.622;6.126;2023-04-24T13:16:51;17.52;;;16.02;;
12908;SDS011;6522;49.622;6.126;2023-04-24T13:19:39;21.45;;;20.05;;
12908;SDS011;6522;49.622;6.126;2023-04-24T13:22:24;21.77;;;20.48;;
12908;SDS011;6522;49.622;6.126;2023-04-24T13:25:11;22.95;;;21.60;;
12908;SDS011;6522;49.622;6.126;2023-04-24T13:27:58;22.60;;;21.25;;
12908;SDS011;6522;49.622;6.126;2023-04-24T13:30:45;21.80;;;20.40;;
12908;SDS011;6522;49.622;6.126;2023-04-24T13:33:31;21.85;;;20.55;;
12908;SDS011;6522;49.622;6.126;2023-04-24T13:36:18;21.20;;;20.00;;
12908;SDS011;6522;49.622;6.126;2023-04-24T13:39:05;21.77;;;20.25;;
12908;SDS011;6522;49.622;6.126;2023-04-24T13:41:51;20.65;;;19.45;;
12908;SDS011;6522;49.622;6.126;2023-04-24T13:44:38;18.55;;;17.25;;
12908;SDS011;6522;49.622;6.126;2023-04-24T13:47:25;22.87;;;21.42;;
12908;SDS011;6522;49.622;6.126;2023-04-24T13:50:12;22.45;;;21.15;;
12908;SDS011;6522;49.622;6.126;2023-04-24T13:52:58;19.90;;;18.60;;
12908;SDS011;6522;49.622;6.126;2023-04-24T13:55:45;19.77;;;18.58;;
12908;SDS011;6522;49.622;6.126;2023-04-24T13:58:32;19.73;;;18.55;;
12908;SDS011;6522;49.622;6.126;2023-04-24T14:01:19;19.42;;;18.33;;
12908;SDS011;6522;49.622;6.126;2023-04-24T14:04:06;20.75;;;19.45;;
12908;SDS011;6522;49.622;6.126;2023-04-24T14:06:52;21.58;;;20.37;;
12908;SDS011;6522;49.622;6.126;2023-04-24T14:09:39;21.48;;;20.12;;
12908;SDS011;6522;49.622;6.126;2023-04-24T14:12:26;18.15;;;16.87;;
12908;SDS011;6522;49.622;6.126;2023-04-24T14:15:12;17.98;;;16.73;;
12908;SDS011;6522;49.622;6.126;2023-04-24T14:17:59;16.67;;;15.68;;
12908;SDS011;6522;49.622;6.126;2023-04-24T14:20:46;13.95;;;12.85;;
12908;SDS011;6522;49.622;6.126;2023-04-24T14:23:33;15.48;;;14.18;;
12908;SDS011;6522;49.622;6.126;2023-04-24T14:26:20;14.00;;;12.90;;
12908;SDS011;6522;49.622;6.126;2023-04-24T14:29:07;16.73;;;15.57;;
12908;SDS011;6522;49.622;6.126;2023-04-24T14:31:54;18.92;;;17.83;;
12908;SDS011;6522;49.622;6.126;2023-04-24T14:34:40;18.23;;;17.00;;
12908;SDS011;6522;49.622;6.126;2023-04-24T14:37:27;19.45;;;18.15;;
12908;SDS011;6522;49.622;6.126;2023-04-24T14:40:14;14.85;;;13.68;;
12908;SDS011;6522;49.622;6.126;2023-04-24T14:43:00;14.32;;;12.98;;
12908;SDS011;6522;49.622;6.126;2023-04-24T14:45:47;13.27;;;12.05;;
12908;SDS011;6522;49.622;6.126;2023-04-24T14:48:34;12.13;;;11.02;;
12908;SDS011;6522;49.622;6.126;2023-04-24T14:51:21;11.80;;;10.90;;
12908;SDS011;6522;49.622;6.126;2023-04-24T14:54:07;9.40;;;8.70;;
12908;SDS011;6522;49.622;6.126;2023-04-24T14:56:54;9.88;;;8.98;;
12908;SDS011;6522;49.622;6.126;2023-04-24T14:59:41;10.35;;;9.50;;
12908;SDS011;6522;49.622;6.126;2023-04-24T15:02:28;8.90;;;8.10;;
12908;SDS011;6522;49.622;6.126;2023-04-24T15:05:14;9.57;;;8.73;;
12908;SDS011;6522;49.622;6.126;2023-04-24T15:08:01;8.98;;;8.23;;
12908;SDS011;6522;49.622;6.126;2023-04-24T15:10:48;10.40;;;9.50;;
12908;SDS011;6522;49.622;6.126;2023-04-24T15:13:35;10.20;;;9.40;;
12908;SDS011;6522;49.622;6.126;2023-04-24T15:16:22;8.52;;;7.75;;
12908;SDS011;6522;49.622;6.126;2023-04-24T15:19:08;8.10;;;7.40;;
12908;SDS011;6522;49.622;6.126;2023-04-24T15:21:55;8.85;;;8.15;;
12908;SDS011;6522;49.622;6.126;2023-04-24T15:24:42;8.52;;;7.87;;
12908;SDS011;6522;49.622;6.126;2023-04-24T15:27:38;8.93;;;8.05;;
12908;SDS011;6522;49.622;6.126;2023-04-24T15:30:16;9.10;;;8.23;;
12908;SDS011;6522;49.622;6.126;2023-04-24T15:33:03;9.25;;;8.40;;
12908;SDS011;6522;49.622;6.126;2023-04-24T15:35:50;7.80;;;7.20;;
12908;SDS011;6522;49.622;6.126;2023-04-24T15:38:36;9.52;;;8.82;;
12908;SDS011;6522;49.622;6.126;2023-04-24T15:41:23;7.82;;;7.22;;
12908;SDS011;6522;49.622;6.126;2023-04-24T15:44:10;8.55;;;7.95;;
12908;SDS011;6522;49.622;6.126;2023-04-24T15:46:57;9.50;;;8.80;;
12908;SDS011;6522;49.622;6.126;2023-04-24T15:49:44;9.30;;;8.60;;
12908;SDS011;6522;49.622;6.126;2023-04-24T15:52:31;9.30;;;8.60;;
12908;SDS011;6522;49.622;6.126;2023-04-24T15:55:18;10.75;;;9.90;;
12908;SDS011;6522;49.622;6.126;2023-04-24T15:58:05;9.82;;;9.02;;
12908;SDS011;6522;49.622;6.126;2023-04-24T16:00:52;10.38;;;9.48;;
12908;SDS011;6522;49.622;6.126;2023-04-24T16:03:38;13.10;;;9.63;;
12908;SDS011;6522;49.622;6.126;2023-04-24T16:06:25;10.10;;;9.23;;
12908;SDS011;6522;49.622;6.126;2023-04-24T16:09:12;9.18;;;8.32;;
12908;SDS011;6522;49.622;6.126;2023-04-24T16:11:59;9.43;;;8.63;;
12908;SDS011;6522;49.622;6.126;2023-04-24T16:14:45;8.93;;;8.13;;
12908;SDS011;6522;49.622;6.126;2023-04-24T16:17:32;8.40;;;7.68;;
12908;SDS011;6522;49.622;6.126;2023-04-24T16:20:19;8.90;;;8.05;;
12908;SDS011;6522;49.622;6.126;2023-04-24T16:23:06;8.75;;;8.05;;
12908;SDS011;6522;49.622;6.126;2023-04-24T16:25:52;9.30;;;8.40;;
12908;SDS011;6522;49.622;6.126;2023-04-24T16:28:39;11.27;;;8.90;;
12908;SDS011;6522;49.622;6.126;2023-04-24T16:31:25;11.65;;;8.70;;
12908;SDS011;6522;49.622;6.126;2023-04-24T16:34:12;10.52;;;9.13;;
12908;SDS011;6522;49.622;6.126;2023-04-24T16:36:59;9.15;;;8.25;;
12908;SDS011;6522;49.622;6.126;2023-04-24T16:39:46;8.63;;;7.72;;